createdAt,value
2023-02-27T00:01:48.567Z,0.32
2023-02-27T00:04:16.969Z,1.13
2023-02-27T00:06:45.170Z,0.65
2023-02-27T00:09:13.464Z,0.82
2023-02-27T00:11:43.383Z,0.35
2023-02-27T00:14:11.821Z,0.40
2023-02-27T00:16:40.057Z,0.30
2023-02-27T00:19:10.196Z,1.23
2023-02-27T00:21:38.431Z,0.30
2023-02-27T00:24:07.718Z,0.60
2023-02-27T00:26:36.699Z,1.40
2023-02-27T00:29:05.490Z,0.52
2023-02-27T00:31:34.768Z,0.52
2023-02-27T00:34:04.171Z,0.65
2023-02-27T00:36:33.838Z,0.68
2023-02-27T00:39:03.336Z,0.45
2023-02-27T00:41:31.623Z,0.57
2023-02-27T00:44:00.279Z,0.77
2023-02-27T00:46:28.544Z,0.40
2023-02-27T00:48:56.754Z,0.45
2023-02-27T00:51:27.260Z,0.47
2023-02-27T00:53:58.391Z,1.02
2023-02-27T00:56:26.973Z,0.40
2023-02-27T00:58:55.592Z,0.47
2023-02-27T01:01:24.072Z,0.60
2023-02-27T01:03:52.560Z,0.77
2023-02-27T01:06:20.741Z,0.45
2023-02-27T01:08:49.135Z,0.77
2023-02-27T01:11:18.862Z,0.40
2023-02-27T01:13:47.361Z,0.35
2023-02-27T01:16:15.890Z,0.55
2023-02-27T01:18:44.179Z,0.63
2023-02-27T01:21:12.488Z,0.43
2023-02-27T01:23:40.842Z,0.68
2023-02-27T01:26:09.238Z,0.73
2023-02-27T01:28:38.901Z,0.50
2023-02-27T01:31:07.664Z,0.22
2023-02-27T01:33:35.893Z,0.70
2023-02-27T01:36:04.270Z,0.65
2023-02-27T01:38:32.470Z,0.75
2023-02-27T01:41:02.052Z,0.43
2023-02-27T01:43:30.283Z,1.38
2023-02-27T01:46:00.835Z,0.63
2023-02-27T01:48:34.552Z,0.70
2023-02-27T01:51:06.171Z,0.55
2023-02-27T01:53:36.232Z,0.60
2023-02-27T01:56:11.370Z,1.10
2023-02-27T01:58:40.321Z,1.42
2023-02-27T02:01:10.317Z,0.77
2023-02-27T02:03:45.038Z,0.60
2023-02-27T02:06:14.089Z,0.60
2023-02-27T02:08:45.576Z,0.50
2023-02-27T02:11:16.184Z,0.80
2023-02-27T02:13:47.065Z,0.20
2023-02-27T02:16:30.660Z,0.77
2023-02-27T02:19:08.035Z,0.43
2023-02-27T02:22:15.276Z,0.55
2023-02-27T02:25:16.252Z,1.02
2023-02-27T02:28:03.066Z,1.47
2023-02-27T02:30:53.815Z,0.60
2023-02-27T02:34:10.002Z,0.82
2023-02-27T02:37:25.446Z,0.85
2023-02-27T02:40:17.581Z,0.95
2023-02-27T02:42:53.874Z,0.17
2023-02-27T02:45:32.045Z,0.40
2023-02-27T02:48:13.396Z,1.42
2023-02-27T02:50:49.552Z,0.45
2023-02-27T02:53:36.148Z,1.40
2023-02-27T02:56:12.015Z,1.00
2023-02-27T02:58:49.076Z,0.17
2023-02-27T03:01:19.780Z,1.10
2023-02-27T03:03:54.517Z,0.50
2023-02-27T03:06:29.663Z,1.10
2023-02-27T03:09:04.638Z,0.38
2023-02-27T03:11:39.414Z,0.43
2023-02-27T03:14:12.438Z,0.88
2023-02-27T03:16:44.185Z,0.45
2023-02-27T03:19:18.671Z,0.38
2023-02-27T03:21:51.479Z,0.05
2023-02-27T03:24:24.790Z,1.15
2023-02-27T03:26:57.269Z,0.77
2023-02-27T03:29:44.875Z,0.55
2023-02-27T03:32:18.966Z,0.40
2023-02-27T03:34:48.652Z,0.60
2023-02-27T03:37:32.935Z,0.10
2023-02-27T03:40:09.291Z,0.30
2023-02-27T03:42:44.087Z,0.45
2023-02-27T03:45:32.476Z,0.73
2023-02-27T03:48:01.499Z,0.50
2023-02-27T03:50:30.457Z,1.20
2023-02-27T03:52:59.068Z,0.77
2023-02-27T03:55:34.163Z,0.70
2023-02-27T03:58:04.102Z,0.40
2023-02-27T04:00:33.257Z,1.02
2023-02-27T04:03:03.037Z,0.55
2023-02-27T04:05:32.773Z,0.32
2023-02-27T04:08:27.048Z,0.68
2023-02-27T04:11:09.383Z,1.00
2023-02-27T04:13:48.772Z,0.68
2023-02-27T04:16:47.917Z,1.27
2023-02-27T04:19:34.527Z,0.20
2023-02-27T04:22:14.058Z,0.90
2023-02-27T04:24:53.511Z,0.68
2023-02-27T04:27:32.618Z,1.17
2023-02-27T04:30:14.539Z,0.80
2023-02-27T04:32:49.158Z,1.43
2023-02-27T04:35:23.788Z,0.85
2023-02-27T04:37:59.706Z,0.80
2023-02-27T04:40:34.935Z,1.42
2023-02-27T04:43:08.028Z,1.02
2023-02-27T04:45:41.540Z,0.90
2023-02-27T04:48:17.084Z,0.82
2023-02-27T04:50:50.265Z,0.38
2023-02-27T04:53:23.674Z,0.38
2023-02-27T04:55:56.485Z,1.02
2023-02-27T04:58:29.778Z,0.82
2023-02-27T05:01:04.350Z,1.20
2023-02-27T05:03:36.696Z,0.45
2023-02-27T05:06:05.271Z,0.50
2023-02-27T05:08:40.000Z,0.75
2023-02-27T05:11:12.409Z,0.85
2023-02-27T05:13:47.822Z,1.55
2023-02-27T05:16:24.811Z,1.13
2023-02-27T05:18:53.165Z,0.80
2023-02-27T05:21:29.162Z,1.02
2023-02-27T05:24:08.005Z,1.02
2023-02-27T05:26:48.408Z,0.50
2023-02-27T05:29:25.218Z,1.75
2023-02-27T05:32:00.154Z,1.33
2023-02-27T05:34:34.710Z,0.77
2023-02-27T05:37:09.042Z,0.82
2023-02-27T05:39:41.105Z,0.63
2023-02-27T05:42:15.186Z,1.52
2023-02-27T05:44:48.935Z,0.55
2023-02-27T05:47:21.939Z,2.00
2023-02-27T05:49:54.598Z,1.05
2023-02-27T05:52:26.646Z,0.75
2023-02-27T05:55:00.751Z,0.82
2023-02-27T05:57:34.795Z,0.90
2023-02-27T06:00:09.521Z,0.93
2023-02-27T06:02:43.785Z,0.82
2023-02-27T06:05:16.389Z,1.20
2023-02-27T06:07:44.763Z,1.38
2023-02-27T06:10:16.053Z,0.57
2023-02-27T06:12:44.610Z,1.10
2023-02-27T06:15:13.686Z,1.00
2023-02-27T06:17:43.287Z,0.57
2023-02-27T06:20:12.960Z,0.73
2023-02-27T06:22:41.402Z,0.43
2023-02-27T06:25:10.711Z,0.38
2023-02-27T06:27:39.012Z,1.02
2023-02-27T06:30:08.614Z,0.55
2023-02-27T06:32:37.166Z,0.85
2023-02-27T06:35:08.030Z,0.55
2023-02-27T06:37:36.304Z,1.70
2023-02-27T06:40:06.038Z,1.00
2023-02-27T06:42:34.360Z,1.35
2023-02-27T06:45:02.761Z,0.52
2023-02-27T06:47:31.008Z,1.02
2023-02-27T06:49:59.333Z,0.93
2023-02-27T06:52:29.620Z,1.27
2023-02-27T06:54:58.524Z,1.05
2023-02-27T06:57:27.145Z,0.75
2023-02-27T06:59:55.436Z,0.30
2023-02-27T07:02:25.702Z,1.08
2023-02-27T07:04:54.563Z,0.52
2023-02-27T07:07:32.250Z,1.08
2023-02-27T07:10:06.924Z,0.85
2023-02-27T07:12:35.688Z,0.50
2023-02-27T07:15:04.785Z,1.50
2023-02-27T07:17:33.095Z,0.70
2023-02-27T07:20:01.730Z,1.10
2023-02-27T07:22:30.235Z,0.90
2023-02-27T07:24:58.500Z,1.35
2023-02-27T07:27:28.214Z,2.08
2023-02-27T07:29:56.524Z,0.57
2023-02-27T07:32:25.115Z,1.30
2023-02-27T07:34:53.366Z,0.60
2023-02-27T07:37:21.670Z,1.10
2023-02-27T07:39:49.901Z,0.90
2023-02-27T07:42:18.139Z,0.70
2023-02-27T07:44:47.821Z,1.00
2023-02-27T07:47:17.749Z,0.80
2023-02-27T07:49:46.308Z,1.17
2023-02-27T07:52:14.591Z,0.60
2023-02-27T07:54:42.898Z,1.05
2023-02-27T07:57:11.511Z,0.88
2023-02-27T07:59:39.820Z,1.15
2023-02-27T08:02:10.733Z,0.80
2023-02-27T08:04:39.552Z,1.13
2023-02-27T08:07:08.274Z,1.25
2023-02-27T08:09:36.585Z,2.50
2023-02-27T08:12:05.072Z,1.33
2023-02-27T08:14:33.376Z,0.95
2023-02-27T08:17:01.700Z,0.45
2023-02-27T08:19:31.694Z,1.48
2023-02-27T08:22:00.013Z,0.90
2023-02-27T08:24:28.384Z,0.90
2023-02-27T08:26:57.408Z,1.00
2023-02-27T08:29:25.757Z,1.23
2023-02-27T08:31:54.321Z,0.93
2023-02-27T08:34:22.755Z,1.25
2023-02-27T08:36:52.872Z,0.90
2023-02-27T08:39:24.413Z,0.30
2023-02-27T08:41:52.984Z,1.02
2023-02-27T08:44:22.035Z,0.90
2023-02-27T08:46:50.336Z,1.08
2023-02-27T08:49:21.467Z,1.40
2023-02-27T08:51:50.014Z,0.70
2023-02-27T08:54:20.735Z,1.40
2023-02-27T08:56:49.388Z,0.25
2023-02-27T08:59:17.878Z,4.10
2023-02-27T09:01:46.314Z,18.13
2023-02-27T09:04:14.721Z,34.70
2023-02-27T09:06:43.042Z,15.50
2023-02-27T09:09:11.550Z,13.85
2023-02-27T09:11:41.566Z,20.75
2023-02-27T09:14:09.916Z,4.07
2023-02-27T09:16:38.233Z,4.53
2023-02-27T09:19:07.178Z,2.50
2023-02-27T09:21:37.477Z,4.15
2023-02-27T09:24:17.575Z,1.42
2023-02-27T09:26:49.176Z,0.60
2023-02-27T09:29:17.890Z,1.27
2023-02-27T09:31:46.806Z,1.05
2023-02-27T09:34:15.192Z,1.38
2023-02-27T09:36:43.582Z,1.23
2023-02-27T09:39:12.369Z,1.00
2023-02-27T09:41:53.794Z,2.15
2023-02-27T09:44:46.123Z,1.77
2023-02-27T09:47:20.484Z,1.52
2023-02-27T09:49:58.463Z,1.17
2023-02-27T09:52:27.534Z,1.40
2023-02-27T09:54:56.100Z,1.73
2023-02-27T09:57:35.949Z,1.02
2023-02-27T10:00:10.072Z,1.05
2023-02-27T10:02:55.899Z,1.40
2023-02-27T10:05:32.838Z,1.02
2023-02-27T10:08:10.788Z,1.05
2023-02-27T10:10:44.927Z,2.45
2023-02-27T10:13:38.034Z,1.65
2023-02-27T10:16:08.253Z,1.52
2023-02-27T10:18:52.282Z,1.52
2023-02-27T10:21:25.125Z,0.90
2023-02-27T10:23:57.418Z,1.70
2023-02-27T10:26:30.187Z,1.83
2023-02-27T10:29:03.705Z,1.27
2023-02-27T10:31:36.091Z,2.00
2023-02-27T10:36:34.701Z,1.23
2023-02-27T10:39:08.672Z,1.40
2023-02-27T10:41:39.912Z,1.48
2023-02-27T10:44:15.635Z,0.70
2023-02-27T10:46:43.964Z,1.17
2023-02-27T10:49:18.856Z,2.22
2023-02-27T10:51:47.634Z,1.13
2023-02-27T10:54:25.072Z,0.90
2023-02-27T10:56:55.894Z,1.50
2023-02-27T10:59:29.930Z,0.93
2023-02-27T11:02:00.495Z,1.30
2023-02-27T11:04:33.336Z,0.93
2023-02-27T11:07:05.239Z,2.05
2023-02-27T11:09:35.440Z,0.80
2023-02-27T11:12:20.137Z,1.20
2023-02-27T11:14:55.311Z,0.57
2023-02-27T11:17:29.560Z,1.38
2023-02-27T11:19:59.458Z,1.42
2023-02-27T11:22:29.865Z,1.00
2023-02-27T11:25:21.416Z,1.58
2023-02-27T11:27:52.316Z,0.80
2023-02-27T11:30:32.211Z,1.95
2023-02-27T11:33:02.934Z,1.08
2023-02-27T11:35:34.483Z,2.05
2023-02-27T11:38:05.855Z,0.75
2023-02-27T11:40:39.462Z,1.37
2023-02-27T11:43:17.503Z,1.08
2023-02-27T11:46:05.860Z,0.80
2023-02-27T11:48:43.492Z,4.65
2023-02-27T11:51:33.608Z,2.70
2023-02-27T11:54:16.381Z,0.70
2023-02-27T11:59:25.377Z,0.80
2023-02-27T12:02:01.120Z,0.95
2023-02-27T12:04:40.967Z,0.77
2023-02-27T12:07:18.660Z,0.98
2023-02-27T12:09:53.133Z,0.50
2023-02-27T12:12:25.306Z,1.13
2023-02-27T12:15:02.419Z,0.25
2023-02-27T12:17:41.248Z,0.63
2023-02-27T12:20:26.472Z,0.88
2023-02-27T12:22:56.479Z,1.25
2023-02-27T12:25:36.090Z,0.77
2023-02-27T12:28:14.463Z,0.73
2023-02-27T12:30:48.939Z,0.85
2023-02-27T12:33:29.489Z,1.25
2023-02-27T12:36:03.613Z,0.43
2023-02-27T12:38:34.461Z,1.08
2023-02-27T12:41:17.367Z,0.98
2023-02-27T12:43:54.600Z,0.60
2023-02-27T12:46:32.319Z,0.80
2023-02-27T12:49:17.633Z,1.63
2023-02-27T12:51:55.211Z,0.93
2023-02-27T12:54:37.079Z,1.67
2023-02-27T12:57:23.897Z,1.17
2023-02-27T13:00:16.417Z,1.10
2023-02-27T13:02:54.782Z,0.40
2023-02-27T13:05:50.526Z,1.20
2023-02-27T13:08:48.464Z,1.55
2023-02-27T13:11:37.787Z,1.33
2023-02-27T13:14:12.569Z,0.80
2023-02-27T13:16:45.358Z,0.82
2023-02-27T13:19:16.941Z,0.60
2023-02-27T13:21:53.388Z,1.20
2023-02-27T13:24:27.180Z,0.60
2023-02-27T13:27:01.916Z,1.17
2023-02-27T13:29:39.811Z,0.88
2023-02-27T13:32:32.759Z,1.05
2023-02-27T13:35:21.454Z,0.52
2023-02-27T13:38:01.704Z,1.25
2023-02-27T13:40:33.645Z,0.52
2023-02-27T13:43:07.347Z,0.70
2023-02-27T13:45:54.332Z,1.13
2023-02-27T13:48:41.227Z,0.70
2023-02-27T13:51:46.982Z,0.50
2023-02-27T13:54:22.034Z,0.60
2023-02-27T13:56:52.556Z,1.58
2023-02-27T13:59:24.649Z,0.70
2023-02-27T14:01:55.925Z,1.63
2023-02-27T14:04:27.455Z,1.10
2023-02-27T14:07:01.745Z,0.50
2023-02-27T14:09:39.173Z,0.45
2023-02-27T14:12:30.921Z,0.68
2023-02-27T14:15:46.527Z,0.68
2023-02-27T14:18:47.737Z,0.90
2023-02-27T14:21:56.583Z,1.00
2023-02-27T14:24:30.084Z,1.30
2023-02-27T14:27:01.370Z,0.50
2023-02-27T14:29:33.664Z,0.90
2023-02-27T14:32:08.817Z,0.50
2023-02-27T14:34:39.439Z,0.60
2023-02-27T14:37:12.403Z,0.45
2023-02-27T14:39:41.753Z,0.70
2023-02-27T14:42:33.023Z,0.88
2023-02-27T14:45:01.662Z,0.75
2023-02-27T14:47:33.152Z,0.88
2023-02-27T14:50:04.128Z,0.77
2023-02-27T14:52:41.990Z,0.77
2023-02-27T14:55:18.001Z,0.77
2023-02-27T14:57:59.152Z,0.55
2023-02-27T15:00:35.192Z,0.60
2023-02-27T15:03:13.429Z,0.85
2023-02-27T15:05:41.994Z,0.70
2023-02-27T15:08:16.636Z,0.93
2023-02-27T15:10:45.756Z,0.50
2023-02-27T15:13:33.866Z,0.50
2023-02-27T15:16:35.906Z,0.60
2023-02-27T15:19:16.991Z,0.77
2023-02-27T15:21:49.743Z,0.75
2023-02-27T15:24:27.782Z,1.05
2023-02-27T15:27:01.144Z,0.88
2023-02-27T15:29:35.471Z,0.77
2023-02-27T15:32:05.693Z,0.60
2023-02-27T15:34:36.433Z,0.90
2023-02-27T15:37:07.243Z,0.70
2023-02-27T15:39:36.941Z,0.40
2023-02-27T15:42:07.134Z,0.77
2023-02-27T15:44:44.295Z,0.65
2023-02-27T15:47:16.983Z,0.90
2023-02-27T15:49:45.436Z,0.52
2023-02-27T15:52:17.882Z,0.65
2023-02-27T15:57:17.043Z,1.08
2023-02-27T15:59:46.765Z,0.43
2023-02-27T16:02:20.043Z,1.30
2023-02-27T16:04:48.964Z,0.55
2023-02-27T16:07:21.573Z,1.10
2023-02-27T16:09:53.872Z,0.98
2023-02-27T16:12:30.944Z,2.80
2023-02-27T16:15:21.782Z,0.82
2023-02-27T16:17:59.169Z,1.00
2023-02-27T16:20:37.584Z,1.20
2023-02-27T16:23:07.335Z,0.90
2023-02-27T16:25:35.754Z,1.42
2023-02-27T16:28:04.250Z,0.60
2023-02-27T16:30:34.004Z,0.73
2023-02-27T16:33:03.061Z,0.52
2023-02-27T16:35:32.012Z,0.77
2023-02-27T16:38:03.656Z,0.70
2023-02-27T16:40:33.967Z,0.77
2023-02-27T16:43:02.477Z,0.70
2023-02-27T16:45:32.115Z,0.68
2023-02-27T16:48:02.970Z,1.52
2023-02-27T16:50:36.303Z,0.60
2023-02-27T16:53:04.514Z,1.23
2023-02-27T16:55:34.007Z,1.52
2023-02-27T16:58:02.312Z,0.40
2023-02-27T17:00:30.987Z,1.00
2023-02-27T17:02:59.211Z,0.50
2023-02-27T17:05:28.884Z,2.03
2023-02-27T17:07:57.072Z,0.93
2023-02-27T17:10:25.698Z,0.73
2023-02-27T17:12:53.976Z,1.65
2023-02-27T17:15:22.540Z,0.82
2023-02-27T17:17:50.994Z,1.08
2023-02-27T17:20:19.635Z,0.95
2023-02-27T17:22:49.238Z,1.55
2023-02-27T17:25:17.519Z,1.08
2023-02-27T17:27:46.232Z,1.15
2023-02-27T17:30:15.509Z,1.15
2023-02-27T17:32:43.737Z,1.00
2023-02-27T17:35:12.525Z,0.77
2023-02-27T17:37:40.747Z,0.60
2023-02-27T17:40:12.351Z,1.35
2023-02-27T17:42:41.240Z,1.00
2023-02-27T17:45:10.813Z,0.70
2023-02-27T17:47:39.103Z,0.57
2023-02-27T17:50:07.616Z,0.90
2023-02-27T17:52:36.774Z,1.25
2023-02-27T17:55:05.959Z,3.10
2023-02-27T17:57:38.064Z,1.90
2023-02-27T18:00:09.072Z,6.90
2023-02-27T18:02:38.030Z,11.82
2023-02-27T18:05:06.863Z,9.38
2023-02-27T18:07:35.638Z,7.95
2023-02-27T18:10:05.498Z,10.02
2023-02-27T18:12:34.415Z,11.25
2023-02-27T18:15:05.870Z,4.82
2023-02-27T18:17:34.652Z,7.32
2023-02-27T18:20:02.963Z,4.50
2023-02-27T18:22:33.233Z,4.53
2023-02-27T18:25:01.615Z,3.92
2023-02-27T18:27:30.519Z,3.25
2023-02-27T18:29:59.304Z,19.25
2023-02-27T18:32:29.104Z,18.63
2023-02-27T18:34:57.378Z,13.18
2023-02-27T18:37:25.635Z,6.68
2023-02-27T18:39:54.221Z,3.33
2023-02-27T18:42:22.488Z,2.35
2023-02-27T18:44:50.790Z,1.38
2023-02-27T18:47:19.072Z,2.20
2023-02-27T18:49:48.683Z,1.98
2023-02-27T18:52:17.223Z,1.52
2023-02-27T18:54:45.432Z,1.30
2023-02-27T18:57:13.773Z,1.83
2023-02-27T18:59:42.081Z,2.20
2023-02-27T19:02:15.912Z,2.05
2023-02-27T19:04:44.335Z,1.13
2023-02-27T19:07:14.496Z,2.22
2023-02-27T19:09:43.267Z,1.45
2023-02-27T19:12:11.919Z,2.17
2023-02-27T19:14:40.703Z,1.83
2023-02-27T19:17:09.026Z,2.72
2023-02-27T19:19:37.489Z,15.25
2023-02-27T19:22:05.809Z,5.93
2023-02-27T19:24:35.452Z,4.03
2023-02-27T19:27:03.824Z,3.65
2023-02-27T19:29:32.323Z,2.70
2023-02-27T19:32:02.264Z,3.20
2023-02-27T19:34:30.643Z,2.50
2023-02-27T19:36:58.997Z,2.50
2023-02-27T19:39:27.282Z,4.95
2023-02-27T19:41:57.604Z,3.92
2023-02-27T19:44:26.715Z,4.22
2023-02-27T19:46:55.122Z,3.00
2023-02-27T19:49:23.378Z,2.13
2023-02-27T19:51:52.352Z,2.42
2023-02-27T19:54:20.651Z,3.25
2023-02-27T19:56:49.222Z,1.90
2023-02-27T19:59:19.029Z,3.25
2023-02-27T20:01:47.661Z,3.40
2023-02-27T20:04:17.712Z,2.20
2023-02-27T20:06:47.832Z,1.90
2023-02-27T20:09:20.463Z,2.10
2023-02-27T20:14:19.340Z,2.13
2023-02-27T20:16:47.801Z,1.50
2023-02-27T20:19:17.892Z,1.35
2023-02-27T20:21:47.204Z,1.85
2023-02-27T20:24:18.268Z,3.22
2023-02-27T20:26:48.477Z,0.88
2023-02-27T20:29:20.400Z,2.55
2023-02-27T20:31:50.906Z,1.55
2023-02-27T20:34:22.075Z,1.58
2023-02-27T20:36:51.178Z,1.25
2023-02-27T20:39:20.514Z,0.95
2023-02-27T20:41:49.336Z,1.25
2023-02-27T20:44:17.702Z,1.80
2023-02-27T20:46:49.436Z,1.00
2023-02-27T20:49:18.480Z,1.80
2023-02-27T20:51:47.045Z,1.75
2023-02-27T20:54:20.613Z,1.50
2023-02-27T20:56:51.976Z,1.20
2023-02-27T20:59:22.449Z,1.25
2023-02-27T21:01:52.729Z,1.10
2023-02-27T21:04:22.657Z,1.10
2023-02-27T21:06:51.513Z,1.25
2023-02-27T21:09:20.382Z,1.40
2023-02-27T21:11:48.696Z,1.15
2023-02-27T21:14:16.976Z,1.08
2023-02-27T21:16:45.179Z,0.90
2023-02-27T21:19:15.200Z,1.17
2023-02-27T21:21:43.521Z,1.33
2023-02-27T21:24:11.810Z,1.45
2023-02-27T21:26:40.746Z,1.23
2023-02-27T21:29:11.035Z,1.40
2023-02-27T21:31:41.032Z,1.10
2023-02-27T21:34:16.921Z,0.80
2023-02-27T21:36:47.766Z,1.40
2023-02-27T21:39:17.790Z,0.77
2023-02-27T21:41:46.612Z,1.27
2023-02-27T21:44:17.460Z,0.90
2023-02-27T21:46:46.352Z,1.90
2023-02-27T21:49:17.300Z,1.75
2023-02-27T21:51:47.438Z,1.35
2023-02-27T21:54:16.703Z,0.90
2023-02-27T21:56:46.354Z,1.08
2023-02-27T21:59:15.167Z,1.65
2023-02-27T22:01:47.283Z,0.60
2023-02-27T22:04:16.142Z,1.17
2023-02-27T22:06:44.522Z,1.67
2023-02-27T22:09:14.623Z,1.27
2023-02-27T22:11:43.222Z,0.47
2023-02-27T22:14:13.030Z,0.90
2023-02-27T22:16:41.991Z,1.75
2023-02-27T22:19:12.341Z,1.35
2023-02-27T22:21:41.216Z,1.13
2023-02-27T22:24:09.753Z,1.60
2023-02-27T22:26:39.950Z,1.63
2023-02-27T22:29:08.274Z,1.20
2023-02-27T22:31:39.111Z,1.17
2023-02-27T22:34:12.154Z,1.10
2023-02-27T22:36:41.751Z,1.38
2023-02-27T22:39:10.172Z,1.48
2023-02-27T22:41:41.230Z,2.22
2023-02-27T22:44:10.910Z,1.75
2023-02-27T22:46:41.312Z,1.13
2023-02-27T22:49:12.915Z,1.13
2023-02-27T22:51:41.328Z,0.88
2023-02-27T22:54:11.303Z,2.20
2023-02-27T22:56:41.897Z,1.73
2023-02-27T22:59:11.040Z,1.25
2023-02-27T23:01:39.591Z,1.08
2023-02-27T23:04:11.529Z,0.73
2023-02-27T23:06:41.125Z,1.33
2023-02-27T23:09:13.638Z,1.20
2023-02-27T23:11:43.652Z,1.30
2023-02-27T23:14:13.148Z,1.10
2023-02-27T23:16:45.616Z,0.77
2023-02-27T23:19:15.646Z,1.15
2023-02-27T23:21:44.341Z,0.90
2023-02-27T23:24:14.656Z,1.20
2023-02-27T23:26:46.573Z,0.60
2023-02-27T23:29:15.270Z,1.83
2023-02-27T23:31:43.783Z,0.88
2023-02-27T23:34:12.526Z,1.05
2023-02-27T23:36:40.968Z,0.60
2023-02-27T23:39:10.025Z,0.50
2023-02-27T23:41:38.258Z,1.17
2023-02-27T23:44:25.570Z,0.98
2023-02-27T23:46:53.799Z,0.98
2023-02-27T23:49:22.300Z,0.80
2023-02-27T23:51:50.614Z,1.15
2023-02-27T23:54:19.627Z,1.23
2023-02-27T23:56:48.668Z,2.05
2023-02-27T23:59:18.404Z,1.23
